Accueil
METAR-TAF:

METAR-TAF

Aéroports :

Chehalis, Washington, États-Unis

latitude: 46-40-37N, longitude: 122-58-58W, altitude: 54 m

Observation

Le bulletin a été fait il y a 21 minutes, à 19:35 UTC
Vent 7 kt de nord-ouest avec des rafales jusqu'à 16 kt, variant entre ouest et nord/nord-ouest
Température 7°C
Humidité 70%
Pression 1020 hPa
Visibilité: 16.1 km
Nuages fragmentés à une hauteur de 3400 ft
Ciel couvert à une hauteur de 4000 ft

METAR: KCLS 241935Z AUTO 31007G16KT 260V340 10SM BKN034 OVC040 07/02 A3013 RMK AO2

Heure: 11:56 (19:56 UTC)


TAF: absent

Observations et prévisions météorologiques de plus de 4000 aéroports (messages METAR et TAF).

Les stations disponibles sont représentées par des disques jaunes et rouges sur la carte.

Passer la souris dessus pour voir le nom de la station.

Cliquer dessus pour voir les observations et prévisions météorologiques.

Pour changer de carte: cliquez sur les boutons verts avec une croix noire pour zoomer, sur le bouton vert avec un tiret pour effectuer un zoom arrière, ou sur les flèches vertes pour les cartes adjacentes.


METAR-TAF: